sensor_id;sensor_type;location;lat;lon;timestamp;temperature;humidity
19555;DHT22;9924;50.828;6.440;2022-10-16T00:01:18;13.30;99.90
19555;DHT22;9924;50.828;6.440;2022-10-16T00:03:45;13.30;99.90
19555;DHT22;9924;50.828;6.440;2022-10-16T00:06:13;13.30;99.90
19555;DHT22;9924;50.828;6.440;2022-10-16T00:08:39;13.30;99.90
19555;DHT22;9924;50.828;6.440;2022-10-16T00:13:40;13.30;99.90
19555;DHT22;9924;50.828;6.440;2022-10-16T00:16:07;13.30;99.90
19555;DHT22;9924;50.828;6.440;2022-10-16T00:18:34;13.30;99.90
19555;DHT22;9924;50.828;6.440;2022-10-16T00:21:14;13.30;99.90
19555;DHT22;9924;50.828;6.440;2022-10-16T00:23:41;13.20;99.90
19555;DHT22;9924;50.828;6.440;2022-10-16T00:26:10;13.10;99.90
19555;DHT22;9924;50.828;6.440;2022-10-16T00:28:36;13.00;99.90
19555;DHT22;9924;50.828;6.440;2022-10-16T00:31:04;12.80;99.90
19555;DHT22;9924;50.828;6.440;2022-10-16T00:33:30;12.80;99.90
19555;DHT22;9924;50.828;6.440;2022-10-16T00:35:58;12.80;99.90
19555;DHT22;9924;50.828;6.440;2022-10-16T00:38:24;12.70;99.90
19555;DHT22;9924;50.828;6.440;2022-10-16T00:40:50;12.80;99.90
19555;DHT22;9924;50.828;6.440;2022-10-16T00:43:39;12.70;99.90
19555;DHT22;9924;50.828;6.440;2022-10-16T00:46:17;12.70;99.90
19555;DHT22;9924;50.828;6.440;2022-10-16T00:51:45;12.50;99.90
19555;DHT22;9924;50.828;6.440;2022-10-16T00:54:18;12.60;99.90
19555;DHT22;9924;50.828;6.440;2022-10-16T00:56:46;12.50;99.90
19555;DHT22;9924;50.828;6.440;2022-10-16T00:59:39;12.50;99.90
19555;DHT22;9924;50.828;6.440;2022-10-16T01:02:12;12.40;99.90
19555;DHT22;9924;50.828;6.440;2022-10-16T01:04:46;12.40;99.90
19555;DHT22;9924;50.828;6.440;2022-10-16T01:10:18;12.40;99.90
19555;DHT22;9924;50.828;6.440;2022-10-16T01:18:00;12.40;99.90
19555;DHT22;9924;50.828;6.440;2022-10-16T01:20:31;12.50;99.90
19555;DHT22;9924;50.828;6.440;2022-10-16T01:28:55;12.50;99.90
19555;DHT22;9924;50.828;6.440;2022-10-16T01:31:25;12.50;99.90
19555;DHT22;9924;50.828;6.440;2022-10-16T01:33:59;12.60;99.90
19555;DHT22;9924;50.828;6.440;2022-10-16T01:36:31;12.60;99.90
19555;DHT22;9924;50.828;6.440;2022-10-16T01:39:01;12.70;99.90
19555;DHT22;9924;50.828;6.440;2022-10-16T01:41:44;12.70;99.90
19555;DHT22;9924;50.828;6.440;2022-10-16T01:44:21;12.60;99.90
19555;DHT22;9924;50.828;6.440;2022-10-16T01:46:50;12.70;99.90
19555;DHT22;9924;50.828;6.440;2022-10-16T01:49:18;12.70;99.90
19555;DHT22;9924;50.828;6.440;2022-10-16T01:51:47;12.80;99.90
19555;DHT22;9924;50.828;6.440;2022-10-16T01:54:14;12.80;99.90
19555;DHT22;9924;50.828;6.440;2022-10-16T01:56:42;12.90;99.90
19555;DHT22;9924;50.828;6.440;2022-10-16T01:59:15;13.00;99.90
19555;DHT22;9924;50.828;6.440;2022-10-16T02:01:45;13.00;99.90
19555;DHT22;9924;50.828;6.440;2022-10-16T02:04:39;13.00;99.90
19555;DHT22;9924;50.828;6.440;2022-10-16T02:07:06;13.10;99.90
19555;DHT22;9924;50.828;6.440;2022-10-16T02:09:36;13.20;99.90
19555;DHT22;9924;50.828;6.440;2022-10-16T02:12:13;13.30;99.90
19555;DHT22;9924;50.828;6.440;2022-10-16T02:14:41;13.40;99.90
19555;DHT22;9924;50.828;6.440;2022-10-16T02:17:12;13.40;99.90
19555;DHT22;9924;50.828;6.440;2022-10-16T02:19:38;13.50;99.90
19555;DHT22;9924;50.828;6.440;2022-10-16T02:22:06;13.50;99.90
19555;DHT22;9924;50.828;6.440;2022-10-16T02:32:50;13.50;99.90
19555;DHT22;9924;50.828;6.440;2022-10-16T02:35:18;13.50;99.90
19555;DHT22;9924;50.828;6.440;2022-10-16T02:37:46;13.50;99.90
19555;DHT22;9924;50.828;6.440;2022-10-16T02:40:13;13.50;99.90
19555;DHT22;9924;50.828;6.440;2022-10-16T02:42:40;13.40;99.90
19555;DHT22;9924;50.828;6.440;2022-10-16T02:45:07;13.40;99.90
19555;DHT22;9924;50.828;6.440;2022-10-16T02:47:34;13.30;99.90
19555;DHT22;9924;50.828;6.440;2022-10-16T02:50:00;13.10;99.90
19555;DHT22;9924;50.828;6.440;2022-10-16T02:52:26;13.10;99.90
19555;DHT22;9924;50.828;6.440;2022-10-16T02:54:52;13.00;99.90
19555;DHT22;9924;50.828;6.440;2022-10-16T02:57:18;12.90;99.90
19555;DHT22;9924;50.828;6.440;2022-10-16T02:59:44;12.80;99.90
19555;DHT22;9924;50.828;6.440;2022-10-16T03:02:10;12.80;99.90
19555;DHT22;9924;50.828;6.440;2022-10-16T03:04:37;12.70;99.90
19555;DHT22;9924;50.828;6.440;2022-10-16T03:07:03;12.60;99.90
19555;DHT22;9924;50.828;6.440;2022-10-16T03:09:29;12.60;99.90
19555;DHT22;9924;50.828;6.440;2022-10-16T03:11:54;12.60;99.90
19555;DHT22;9924;50.828;6.440;2022-10-16T03:14:20;12.60;99.90
19555;DHT22;9924;50.828;6.440;2022-10-16T03:16:46;12.60;99.90
19555;DHT22;9924;50.828;6.440;2022-10-16T03:19:12;12.50;99.90
19555;DHT22;9924;50.828;6.440;2022-10-16T03:21:38;12.50;99.90
19555;DHT22;9924;50.828;6.440;2022-10-16T03:24:04;12.60;99.90
19555;DHT22;9924;50.828;6.440;2022-10-16T03:26:29;12.50;99.90
19555;DHT22;9924;50.828;6.440;2022-10-16T03:28:55;12.50;99.90
19555;DHT22;9924;50.828;6.440;2022-10-16T03:31:21;12.50;99.90
19555;DHT22;9924;50.828;6.440;2022-10-16T03:33:47;12.50;99.90
19555;DHT22;9924;50.828;6.440;2022-10-16T03:36:13;12.60;99.90
19555;DHT22;9924;50.828;6.440;2022-10-16T03:38:39;12.60;99.90
19555;DHT22;9924;50.828;6.440;2022-10-16T03:41:04;12.70;99.90
19555;DHT22;9924;50.828;6.440;2022-10-16T03:43:30;12.70;99.90
19555;DHT22;9924;50.828;6.440;2022-10-16T03:45:56;12.80;99.90
19555;DHT22;9924;50.828;6.440;2022-10-16T03:48:22;12.80;99.90
19555;DHT22;9924;50.828;6.440;2022-10-16T03:50:48;12.80;99.90
19555;DHT22;9924;50.828;6.440;2022-10-16T03:53:14;12.80;99.90
19555;DHT22;9924;50.828;6.440;2022-10-16T03:55:44;12.80;99.90
19555;DHT22;9924;50.828;6.440;2022-10-16T03:58:10;12.80;99.90
19555;DHT22;9924;50.828;6.440;2022-10-16T04:00:42;12.80;99.90
19555;DHT22;9924;50.828;6.440;2022-10-16T04:03:09;12.80;99.90
19555;DHT22;9924;50.828;6.440;2022-10-16T04:05:35;12.80;99.90
19555;DHT22;9924;50.828;6.440;2022-10-16T04:08:00;12.80;99.90
19555;DHT22;9924;50.828;6.440;2022-10-16T04:10:26;12.90;99.90
19555;DHT22;9924;50.828;6.440;2022-10-16T04:12:52;12.90;99.90
19555;DHT22;9924;50.828;6.440;2022-10-16T04:15:20;12.90;99.90
19555;DHT22;9924;50.828;6.440;2022-10-16T04:17:46;12.90;99.90
19555;DHT22;9924;50.828;6.440;2022-10-16T04:20:12;12.90;99.90
19555;DHT22;9924;50.828;6.440;2022-10-16T04:22:38;12.90;99.90
19555;DHT22;9924;50.828;6.440;2022-10-16T04:25:05;12.90;99.90
19555;DHT22;9924;50.828;6.440;2022-10-16T04:27:30;12.90;99.90
19555;DHT22;9924;50.828;6.440;2022-10-16T04:29:57;12.90;99.90
19555;DHT22;9924;50.828;6.440;2022-10-16T04:32:23;12.80;99.90
19555;DHT22;9924;50.828;6.440;2022-10-16T04:34:49;12.80;99.90
19555;DHT22;9924;50.828;6.440;2022-10-16T04:37:15;12.70;99.90
19555;DHT22;9924;50.828;6.440;2022-10-16T04:39:41;12.60;99.90
19555;DHT22;9924;50.828;6.440;2022-10-16T04:42:07;12.60;99.90
19555;DHT22;9924;50.828;6.440;2022-10-16T04:44:32;12.50;99.90
19555;DHT22;9924;50.828;6.440;2022-10-16T04:46:58;12.50;99.90
19555;DHT22;9924;50.828;6.440;2022-10-16T04:49:24;12.50;99.90
19555;DHT22;9924;50.828;6.440;2022-10-16T04:51:50;12.60;99.90
19555;DHT22;9924;50.828;6.440;2022-10-16T04:54:16;12.50;99.90
19555;DHT22;9924;50.828;6.440;2022-10-16T04:56:41;12.50;99.90
19555;DHT22;9924;50.828;6.440;2022-10-16T04:59:17;12.50;99.90
19555;DHT22;9924;50.828;6.440;2022-10-16T05:01:43;12.50;99.90
19555;DHT22;9924;50.828;6.440;2022-10-16T05:04:09;12.50;99.90
19555;DHT22;9924;50.828;6.440;2022-10-16T05:06:35;12.40;99.90
19555;DHT22;9924;50.828;6.440;2022-10-16T05:09:01;12.40;99.90
19555;DHT22;9924;50.828;6.440;2022-10-16T05:11:27;12.30;99.90
19555;DHT22;9924;50.828;6.440;2022-10-16T05:13:53;12.20;99.90
19555;DHT22;9924;50.828;6.440;2022-10-16T05:16:19;12.30;99.90
19555;DHT22;9924;50.828;6.440;2022-10-16T05:18:45;12.20;99.90
19555;DHT22;9924;50.828;6.440;2022-10-16T05:21:11;12.10;99.90
19555;DHT22;9924;50.828;6.440;2022-10-16T05:23:37;12.10;99.90
19555;DHT22;9924;50.828;6.440;2022-10-16T05:26:03;12.00;99.90
19555;DHT22;9924;50.828;6.440;2022-10-16T05:28:29;12.00;99.90
19555;DHT22;9924;50.828;6.440;2022-10-16T05:30:56;12.00;99.90
19555;DHT22;9924;50.828;6.440;2022-10-16T05:33:23;11.90;99.90
19555;DHT22;9924;50.828;6.440;2022-10-16T05:35:50;11.80;99.90
19555;DHT22;9924;50.828;6.440;2022-10-16T05:38:18;11.70;99.90
19555;DHT22;9924;50.828;6.440;2022-10-16T05:40:51;11.70;99.90
19555;DHT22;9924;50.828;6.440;2022-10-16T05:43:18;11.70;99.90
19555;DHT22;9924;50.828;6.440;2022-10-16T05:45:44;11.70;99.90
19555;DHT22;9924;50.828;6.440;2022-10-16T05:48:09;11.70;99.90
19555;DHT22;9924;50.828;6.440;2022-10-16T05:50:35;11.60;99.90
19555;DHT22;9924;50.828;6.440;2022-10-16T05:53:01;11.60;99.90
19555;DHT22;9924;50.828;6.440;2022-10-16T05:55:26;11.60;99.90
19555;DHT22;9924;50.828;6.440;2022-10-16T05:57:54;11.50;99.90
19555;DHT22;9924;50.828;6.440;2022-10-16T06:00:20;11.50;99.90
19555;DHT22;9924;50.828;6.440;2022-10-16T06:02:46;11.40;99.90
19555;DHT22;9924;50.828;6.440;2022-10-16T06:05:12;11.40;99.90
19555;DHT22;9924;50.828;6.440;2022-10-16T06:07:38;11.40;99.90
19555;DHT22;9924;50.828;6.440;2022-10-16T06:10:04;11.40;99.90
19555;DHT22;9924;50.828;6.440;2022-10-16T06:12:30;11.40;99.90
19555;DHT22;9924;50.828;6.440;2022-10-16T06:14:56;11.30;99.90
19555;DHT22;9924;50.828;6.440;2022-10-16T06:17:22;11.40;99.90
19555;DHT22;9924;50.828;6.440;2022-10-16T06:19:47;11.40;99.90
19555;DHT22;9924;50.828;6.440;2022-10-16T06:22:13;11.40;99.90
19555;DHT22;9924;50.828;6.440;2022-10-16T06:24:39;11.50;99.90
19555;DHT22;9924;50.828;6.440;2022-10-16T06:27:05;11.60;99.90
19555;DHT22;9924;50.828;6.440;2022-10-16T06:29:30;11.70;99.90
19555;DHT22;9924;50.828;6.440;2022-10-16T06:31:56;11.80;99.90
19555;DHT22;9924;50.828;6.440;2022-10-16T06:34:22;11.90;99.90
19555;DHT22;9924;50.828;6.440;2022-10-16T06:36:48;11.90;99.90
19555;DHT22;9924;50.828;6.440;2022-10-16T06:39:14;12.00;99.90
19555;DHT22;9924;50.828;6.440;2022-10-16T06:41:40;12.10;99.90
19555;DHT22;9924;50.828;6.440;2022-10-16T06:44:07;12.10;99.90
19555;DHT22;9924;50.828;6.440;2022-10-16T06:46:34;12.20;99.90
19555;DHT22;9924;50.828;6.440;2022-10-16T06:48:59;12.30;99.90
19555;DHT22;9924;50.828;6.440;2022-10-16T06:51:28;12.50;99.90
19555;DHT22;9924;50.828;6.440;2022-10-16T06:53:58;12.70;99.90
19555;DHT22;9924;50.828;6.440;2022-10-16T06:56:26;12.90;99.90
19555;DHT22;9924;50.828;6.440;2022-10-16T06:58:52;13.00;99.90
19555;DHT22;9924;50.828;6.440;2022-10-16T07:01:22;13.10;99.90
19555;DHT22;9924;50.828;6.440;2022-10-16T07:03:49;13.20;99.90
19555;DHT22;9924;50.828;6.440;2022-10-16T07:06:17;13.30;99.90
19555;DHT22;9924;50.828;6.440;2022-10-16T07:08:45;13.40;99.90
19555;DHT22;9924;50.828;6.440;2022-10-16T07:11:16;13.60;99.90
19555;DHT22;9924;50.828;6.440;2022-10-16T07:13:44;13.80;99.90
19555;DHT22;9924;50.828;6.440;2022-10-16T07:16:15;13.80;99.90
19555;DHT22;9924;50.828;6.440;2022-10-16T07:18:41;13.80;99.90
19555;DHT22;9924;50.828;6.440;2022-10-16T07:21:19;13.80;99.90
19555;DHT22;9924;50.828;6.440;2022-10-16T07:23:52;13.90;99.90
19555;DHT22;9924;50.828;6.440;2022-10-16T07:26:18;13.90;99.90
19555;DHT22;9924;50.828;6.440;2022-10-16T07:28:45;14.00;99.90
19555;DHT22;9924;50.828;6.440;2022-10-16T07:31:12;14.20;99.90
19555;DHT22;9924;50.828;6.440;2022-10-16T07:33:40;14.30;99.90
19555;DHT22;9924;50.828;6.440;2022-10-16T07:36:07;14.30;99.90
19555;DHT22;9924;50.828;6.440;2022-10-16T07:38:33;14.40;99.90
19555;DHT22;9924;50.828;6.440;2022-10-16T07:41:02;14.50;99.90
19555;DHT22;9924;50.828;6.440;2022-10-16T07:43:28;14.50;99.90
19555;DHT22;9924;50.828;6.440;2022-10-16T07:45:54;14.50;99.90
19555;DHT22;9924;50.828;6.440;2022-10-16T07:48:22;14.50;99.90
19555;DHT22;9924;50.828;6.440;2022-10-16T07:50:48;14.50;99.90
19555;DHT22;9924;50.828;6.440;2022-10-16T07:53:14;14.50;99.90
19555;DHT22;9924;50.828;6.440;2022-10-16T07:55:41;14.60;99.90
19555;DHT22;9924;50.828;6.440;2022-10-16T07:58:07;14.70;99.90
19555;DHT22;9924;50.828;6.440;2022-10-16T08:00:33;14.80;99.90
19555;DHT22;9924;50.828;6.440;2022-10-16T08:03:01;15.00;99.90
19555;DHT22;9924;50.828;6.440;2022-10-16T08:05:28;15.20;99.90
19555;DHT22;9924;50.828;6.440;2022-10-16T08:07:56;15.40;99.90
19555;DHT22;9924;50.828;6.440;2022-10-16T08:10:24;15.50;99.90
19555;DHT22;9924;50.828;6.440;2022-10-16T08:12:51;15.50;99.90
19555;DHT22;9924;50.828;6.440;2022-10-16T08:15:17;15.70;99.90
19555;DHT22;9924;50.828;6.440;2022-10-16T08:17:43;15.80;99.90
19555;DHT22;9924;50.828;6.440;2022-10-16T08:20:10;15.90;99.90
19555;DHT22;9924;50.828;6.440;2022-10-16T08:22:36;15.90;99.90
19555;DHT22;9924;50.828;6.440;2022-10-16T08:25:03;15.90;99.90
19555;DHT22;9924;50.828;6.440;2022-10-16T08:27:32;15.90;99.90
19555;DHT22;9924;50.828;6.440;2022-10-16T08:30:01;16.00;99.90
19555;DHT22;9924;50.828;6.440;2022-10-16T08:32:27;16.10;99.90
19555;DHT22;9924;50.828;6.440;2022-10-16T08:34:53;16.10;99.90
19555;DHT22;9924;50.828;6.440;2022-10-16T08:37:18;16.10;99.90
19555;DHT22;9924;50.828;6.440;2022-10-16T08:39:44;16.20;99.90
19555;DHT22;9924;50.828;6.440;2022-10-16T08:50:32;16.60;99.90
19555;DHT22;9924;50.828;6.440;2022-10-16T08:52:58;16.60;99.90
19555;DHT22;9924;50.828;6.440;2022-10-16T08:58:15;16.80;99.90
19555;DHT22;9924;50.828;6.440;2022-10-16T09:00:43;16.90;99.90
19555;DHT22;9924;50.828;6.440;2022-10-16T09:14:07;17.20;99.90
19555;DHT22;9924;50.828;6.440;2022-10-16T09:16:48;17.40;99.90
19555;DHT22;9924;50.828;6.440;2022-10-16T09:19:38;17.70;99.90
19555;DHT22;9924;50.828;6.440;2022-10-16T09:22:14;17.90;99.90
19555;DHT22;9924;50.828;6.440;2022-10-16T09:24:40;18.10;99.90
19555;DHT22;9924;50.828;6.440;2022-10-16T09:27:15;18.30;99.90
19555;DHT22;9924;50.828;6.440;2022-10-16T09:29:41;18.40;99.90
19555;DHT22;9924;50.828;6.440;2022-10-16T09:32:17;18.60;99.90
19555;DHT22;9924;50.828;6.440;2022-10-16T09:34:52;18.80;99.90
19555;DHT22;9924;50.828;6.440;2022-10-16T09:37:22;19.00;99.90
19555;DHT22;9924;50.828;6.440;2022-10-16T09:39:49;19.20;99.90
19555;DHT22;9924;50.828;6.440;2022-10-16T09:42:20;19.40;99.90
19555;DHT22;9924;50.828;6.440;2022-10-16T09:44:51;19.60;99.90
19555;DHT22;9924;50.828;6.440;2022-10-16T09:47:25;19.70;99.90
19555;DHT22;9924;50.828;6.440;2022-10-16T09:49:57;19.90;99.90
19555;DHT22;9924;50.828;6.440;2022-10-16T09:52:25;19.90;99.90
19555;DHT22;9924;50.828;6.440;2022-10-16T09:54:58;19.90;99.90
19555;DHT22;9924;50.828;6.440;2022-10-16T09:57:25;20.10;99.90
19555;DHT22;9924;50.828;6.440;2022-10-16T09:59:53;20.20;99.90
19555;DHT22;9924;50.828;6.440;2022-10-16T10:02:31;20.40;99.90
19555;DHT22;9924;50.828;6.440;2022-10-16T10:04:59;20.70;99.90
19555;DHT22;9924;50.828;6.440;2022-10-16T10:07:27;21.00;99.90
19555;DHT22;9924;50.828;6.440;2022-10-16T10:09:55;21.40;99.90
19555;DHT22;9924;50.828;6.440;2022-10-16T10:12:25;21.50;99.90
19555;DHT22;9924;50.828;6.440;2022-10-16T10:14:52;21.50;99.90
19555;DHT22;9924;50.828;6.440;2022-10-16T10:17:28;21.10;99.90
19555;DHT22;9924;50.828;6.440;2022-10-16T10:19:59;20.70;99.90
19555;DHT22;9924;50.828;6.440;2022-10-16T10:22:42;20.50;99.90
19555;DHT22;9924;50.828;6.440;2022-10-16T10:38:16;21.10;99.90
19555;DHT22;9924;50.828;6.440;2022-10-16T10:43:18;21.30;99.90
19555;DHT22;9924;50.828;6.440;2022-10-16T10:45:48;21.20;99.90
19555;DHT22;9924;50.828;6.440;2022-10-16T10:51:04;21.40;99.90
19555;DHT22;9924;50.828;6.440;2022-10-16T10:54:10;21.40;99.90
19555;DHT22;9924;50.828;6.440;2022-10-16T10:56:56;21.20;99.90
19555;DHT22;9924;50.828;6.440;2022-10-16T10:59:37;21.00;99.90
19555;DHT22;9924;50.828;6.440;2022-10-16T11:07:41;20.70;99.90
19555;DHT22;9924;50.828;6.440;2022-10-16T11:10:18;20.80;99.90
19555;DHT22;9924;50.828;6.440;2022-10-16T11:12:49;21.30;99.90
19555;DHT22;9924;50.828;6.440;2022-10-16T11:15:29;21.90;99.90
19555;DHT22;9924;50.828;6.440;2022-10-16T11:18:18;22.40;99.90
19555;DHT22;9924;50.828;6.440;2022-10-16T11:21:00;23.10;99.90
19555;DHT22;9924;50.828;6.440;2022-10-16T11:23:53;23.30;99.90
19555;DHT22;9924;50.828;6.440;2022-10-16T11:26:24;23.20;99.90
19555;DHT22;9924;50.828;6.440;2022-10-16T11:28:53;22.90;99.90
19555;DHT22;9924;50.828;6.440;2022-10-16T11:31:28;22.70;99.90
19555;DHT22;9924;50.828;6.440;2022-10-16T11:39:11;22.00;99.90
19555;DHT22;9924;50.828;6.440;2022-10-16T11:41:46;21.90;99.90
19555;DHT22;9924;50.828;6.440;2022-10-16T11:44:35;21.70;99.90
19555;DHT22;9924;50.828;6.440;2022-10-16T11:49:47;21.80;99.90
19555;DHT22;9924;50.828;6.440;2022-10-16T11:52:23;22.00;99.90
19555;DHT22;9924;50.828;6.440;2022-10-16T11:55:13;21.90;99.90
19555;DHT22;9924;50.828;6.440;2022-10-16T11:57:43;21.80;99.90
19555;DHT22;9924;50.828;6.440;2022-10-16T12:00:23;21.70;99.90
19555;DHT22;9924;50.828;6.440;2022-10-16T12:02:58;21.80;99.90
19555;DHT22;9924;50.828;6.440;2022-10-16T12:05:33;21.90;99.90
19555;DHT22;9924;50.828;6.440;2022-10-16T12:10:33;22.30;99.90
19555;DHT22;9924;50.828;6.440;2022-10-16T12:15:50;22.30;99.90
19555;DHT22;9924;50.828;6.440;2022-10-16T12:18:23;22.10;99.90
19555;DHT22;9924;50.828;6.440;2022-10-16T12:20:59;22.10;99.90
19555;DHT22;9924;50.828;6.440;2022-10-16T12:23:30;22.20;99.90
19555;DHT22;9924;50.828;6.440;2022-10-16T12:25:58;22.50;99.90
19555;DHT22;9924;50.828;6.440;2022-10-16T12:28:29;22.70;99.90
19555;DHT22;9924;50.828;6.440;2022-10-16T12:31:04;23.10;99.90
19555;DHT22;9924;50.828;6.440;2022-10-16T12:33:35;23.30;99.90
19555;DHT22;9924;50.828;6.440;2022-10-16T12:36:04;23.40;99.90
19555;DHT22;9924;50.828;6.440;2022-10-16T12:38:47;23.40;99.90
19555;DHT22;9924;50.828;6.440;2022-10-16T12:41:30;23.20;99.90
19555;DHT22;9924;50.828;6.440;2022-10-16T12:43:57;22.90;99.90
19555;DHT22;9924;50.828;6.440;2022-10-16T12:51:42;22.50;99.90
19555;DHT22;9924;50.828;6.440;2022-10-16T12:54:15;22.60;99.90
19555;DHT22;9924;50.828;6.440;2022-10-16T13:08:01;22.20;99.90
19555;DHT22;9924;50.828;6.440;2022-10-16T13:10:53;22.20;99.90
19555;DHT22;9924;50.828;6.440;2022-10-16T13:26:46;25.10;99.90
19555;DHT22;9924;50.828;6.440;2022-10-16T13:29:15;25.80;99.90
19555;DHT22;9924;50.828;6.440;2022-10-16T13:31:43;26.60;99.90
19555;DHT22;9924;50.828;6.440;2022-10-16T13:34:21;26.70;99.90
19555;DHT22;9924;50.828;6.440;2022-10-16T13:36:50;26.50;99.90
19555;DHT22;9924;50.828;6.440;2022-10-16T13:39:28;26.50;99.90
19555;DHT22;9924;50.828;6.440;2022-10-16T13:42:14;26.20;99.90
19555;DHT22;9924;50.828;6.440;2022-10-16T13:44:49;26.30;99.90
19555;DHT22;9924;50.828;6.440;2022-10-16T13:47:25;26.00;99.90
19555;DHT22;9924;50.828;6.440;2022-10-16T13:50:15;25.30;99.90
19555;DHT22;9924;50.828;6.440;2022-10-16T13:52:41;24.70;99.90
19555;DHT22;9924;50.828;6.440;2022-10-16T13:55:14;24.30;99.90
19555;DHT22;9924;50.828;6.440;2022-10-16T13:57:41;24.10;99.90
19555;DHT22;9924;50.828;6.440;2022-10-16T14:00:23;23.90;99.90
19555;DHT22;9924;50.828;6.440;2022-10-16T14:02:59;23.60;99.90
19555;DHT22;9924;50.828;6.440;2022-10-16T14:05:26;23.10;99.90
19555;DHT22;9924;50.828;6.440;2022-10-16T14:07:54;22.40;99.90
19555;DHT22;9924;50.828;6.440;2022-10-16T14:10:27;22.10;99.90
19555;DHT22;9924;50.828;6.440;2022-10-16T14:13:03;21.90;99.90
19555;DHT22;9924;50.828;6.440;2022-10-16T14:15:30;21.70;99.90
19555;DHT22;9924;50.828;6.440;2022-10-16T14:17:59;21.70;99.90
19555;DHT22;9924;50.828;6.440;2022-10-16T14:20:29;21.80;99.90
19555;DHT22;9924;50.828;6.440;2022-10-16T14:23:21;21.80;99.90
19555;DHT22;9924;50.828;6.440;2022-10-16T14:25:45;21.60;99.90
19555;DHT22;9924;50.828;6.440;2022-10-16T14:28:17;21.30;99.90
19555;DHT22;9924;50.828;6.440;2022-10-16T14:31:00;21.30;99.90
19555;DHT22;9924;50.828;6.440;2022-10-16T14:38:37;21.50;99.90
19555;DHT22;9924;50.828;6.440;2022-10-16T14:41:04;21.60;99.90
19555;DHT22;9924;50.828;6.440;2022-10-16T14:43:38;21.60;99.90
19555;DHT22;9924;50.828;6.440;2022-10-16T14:46:16;21.40;99.90
19555;DHT22;9924;50.828;6.440;2022-10-16T14:48:45;21.40;99.90
19555;DHT22;9924;50.828;6.440;2022-10-16T14:51:14;21.30;99.90
19555;DHT22;9924;50.828;6.440;2022-10-16T14:53:40;21.30;99.90
19555;DHT22;9924;50.828;6.440;2022-10-16T14:56:23;21.20;99.90
19555;DHT22;9924;50.828;6.440;2022-10-16T14:58:52;21.10;99.90
19555;DHT22;9924;50.828;6.440;2022-10-16T15:01:19;21.10;99.90
19555;DHT22;9924;50.828;6.440;2022-10-16T15:03:45;21.00;99.90
19555;DHT22;9924;50.828;6.440;2022-10-16T15:06:12;20.90;99.90
19555;DHT22;9924;50.828;6.440;2022-10-16T15:08:38;20.80;99.90
19555;DHT22;9924;50.828;6.440;2022-10-16T15:11:04;20.70;99.90
19555;DHT22;9924;50.828;6.440;2022-10-16T15:13:30;20.50;99.90
19555;DHT22;9924;50.828;6.440;2022-10-16T15:15:56;20.50;99.90
19555;DHT22;9924;50.828;6.440;2022-10-16T15:18:21;20.50;99.90
19555;DHT22;9924;50.828;6.440;2022-10-16T15:20:49;20.30;99.90
19555;DHT22;9924;50.828;6.440;2022-10-16T15:23:21;20.00;99.90
19555;DHT22;9924;50.828;6.440;2022-10-16T15:25:49;19.80;99.90
19555;DHT22;9924;50.828;6.440;2022-10-16T15:28:16;19.90;99.90
19555;DHT22;9924;50.828;6.440;2022-10-16T15:30:43;20.00;99.90
19555;DHT22;9924;50.828;6.440;2022-10-16T15:33:14;20.00;99.90
19555;DHT22;9924;50.828;6.440;2022-10-16T15:35:41;20.00;99.90
19555;DHT22;9924;50.828;6.440;2022-10-16T15:38:11;19.90;99.90
19555;DHT22;9924;50.828;6.440;2022-10-16T15:40:37;19.90;99.90
19555;DHT22;9924;50.828;6.440;2022-10-16T15:43:04;19.90;99.90
19555;DHT22;9924;50.828;6.440;2022-10-16T15:45:29;19.80;99.90
19555;DHT22;9924;50.828;6.440;2022-10-16T15:47:55;19.70;99.90
19555;DHT22;9924;50.828;6.440;2022-10-16T15:50:21;19.60;99.90
19555;DHT22;9924;50.828;6.440;2022-10-16T15:52:47;19.50;99.90
19555;DHT22;9924;50.828;6.440;2022-10-16T15:55:15;19.40;99.90
19555;DHT22;9924;50.828;6.440;2022-10-16T15:57:41;19.30;99.90
19555;DHT22;9924;50.828;6.440;2022-10-16T16:00:17;19.30;99.90
19555;DHT22;9924;50.828;6.440;2022-10-16T16:02:44;19.30;99.90
19555;DHT22;9924;50.828;6.440;2022-10-16T16:05:15;19.30;99.90
19555;DHT22;9924;50.828;6.440;2022-10-16T16:07:41;19.30;99.90
19555;DHT22;9924;50.828;6.440;2022-10-16T16:10:08;19.20;99.90
19555;DHT22;9924;50.828;6.440;2022-10-16T16:12:35;19.20;99.90
19555;DHT22;9924;50.828;6.440;2022-10-16T16:15:03;19.10;99.90
19555;DHT22;9924;50.828;6.440;2022-10-16T16:17:31;19.10;99.90
19555;DHT22;9924;50.828;6.440;2022-10-16T16:19:57;19.10;99.90
19555;DHT22;9924;50.828;6.440;2022-10-16T16:22:23;19.10;99.90
19555;DHT22;9924;50.828;6.440;2022-10-16T16:24:49;19.00;99.90
19555;DHT22;9924;50.828;6.440;2022-10-16T16:27:15;18.90;99.90
19555;DHT22;9924;50.828;6.440;2022-10-16T16:29:44;18.90;99.90
19555;DHT22;9924;50.828;6.440;2022-10-16T16:32:10;18.80;99.90
19555;DHT22;9924;50.828;6.440;2022-10-16T16:34:36;18.80;99.90
19555;DHT22;9924;50.828;6.440;2022-10-16T16:37:02;18.70;99.90
19555;DHT22;9924;50.828;6.440;2022-10-16T16:39:30;18.70;99.90
19555;DHT22;9924;50.828;6.440;2022-10-16T16:41:57;18.60;99.90
19555;DHT22;9924;50.828;6.440;2022-10-16T16:44:24;18.60;99.90
19555;DHT22;9924;50.828;6.440;2022-10-16T16:46:58;18.60;99.90
19555;DHT22;9924;50.828;6.440;2022-10-16T16:49:24;18.60;99.90
19555;DHT22;9924;50.828;6.440;2022-10-16T16:51:51;18.50;99.90
19555;DHT22;9924;50.828;6.440;2022-10-16T16:54:29;18.40;99.90
19555;DHT22;9924;50.828;6.440;2022-10-16T16:56:55;18.40;99.90
19555;DHT22;9924;50.828;6.440;2022-10-16T16:59:21;18.40;99.90
19555;DHT22;9924;50.828;6.440;2022-10-16T17:01:51;18.40;99.90
19555;DHT22;9924;50.828;6.440;2022-10-16T17:04:17;18.40;99.90
19555;DHT22;9924;50.828;6.440;2022-10-16T17:06:44;18.40;99.90
19555;DHT22;9924;50.828;6.440;2022-10-16T17:09:10;18.30;99.90
19555;DHT22;9924;50.828;6.440;2022-10-16T17:11:39;18.30;99.90
19555;DHT22;9924;50.828;6.440;2022-10-16T17:14:07;18.30;99.90
19555;DHT22;9924;50.828;6.440;2022-10-16T17:16:36;18.40;99.90
19555;DHT22;9924;50.828;6.440;2022-10-16T17:19:07;18.40;99.90
19555;DHT22;9924;50.828;6.440;2022-10-16T17:21:34;18.30;99.90
19555;DHT22;9924;50.828;6.440;2022-10-16T17:24:01;18.30;99.90
19555;DHT22;9924;50.828;6.440;2022-10-16T17:26:27;18.30;99.90
19555;DHT22;9924;50.828;6.440;2022-10-16T17:28:54;18.30;99.90
19555;DHT22;9924;50.828;6.440;2022-10-16T17:31:24;18.30;99.90
19555;DHT22;9924;50.828;6.440;2022-10-16T17:33:50;18.30;99.90
19555;DHT22;9924;50.828;6.440;2022-10-16T17:36:17;18.30;99.90
19555;DHT22;9924;50.828;6.440;2022-10-16T17:38:44;18.20;99.90
19555;DHT22;9924;50.828;6.440;2022-10-16T17:41:23;18.20;99.90
19555;DHT22;9924;50.828;6.440;2022-10-16T17:43:50;18.20;99.90
19555;DHT22;9924;50.828;6.440;2022-10-16T17:46:18;18.10;99.90
19555;DHT22;9924;50.828;6.440;2022-10-16T17:48:47;18.10;99.90
19555;DHT22;9924;50.828;6.440;2022-10-16T17:51:15;17.90;99.90
19555;DHT22;9924;50.828;6.440;2022-10-16T17:53:42;17.90;99.90
19555;DHT22;9924;50.828;6.440;2022-10-16T17:56:11;17.90;99.90
19555;DHT22;9924;50.828;6.440;2022-10-16T17:58:39;18.00;99.90
19555;DHT22;9924;50.828;6.440;2022-10-16T18:01:19;18.00;99.90